Time;durP1;ratioP1;P1;durP2;ratioP2;P2;SDS_P1;SDS_P2;PMS_P1;PMS_P2;Temp;Humidity;BMP_temperature;BMP_pressure;BME280_temperature;BME280_humidity;BME280_pressure;Samples;Min_cycle;Max_cycle;Signal;HPM_P1;HPM_P2
2022/01/10 00:02:10;;;;;;;13.30;4.07;;;4.70;99.90;;;;;;4995128;28;20391;-73
2022/01/10 00:04:35;;;;;;;13.85;3.63;;;4.60;99.90;;;;;;5002483;28;20049;-73
2022/01/10 00:07:02;;;;;;;17.27;4.10;;;4.70;99.90;;;;;;4997521;28;20034;-73
2022/01/10 00:09:27;;;;;;;19.20;4.05;;;4.60;99.90;;;;;;4996622;28;20053;-72
2022/01/10 00:11:53;;;;;;;17.20;4.55;;;4.60;99.90;;;;;;4998244;28;20058;-73
2022/01/10 00:14:19;;;;;;;16.33;4.10;;;4.60;99.90;;;;;;4998467;28;20837;-72
2022/01/10 00:16:44;;;;;;;20.30;3.67;;;4.60;99.90;;;;;;4995622;28;20073;-72
2022/01/10 00:19:10;;;;;;;17.52;4.35;;;4.60;99.90;;;;;;4996199;28;20100;-73
2022/01/10 00:21:36;;;;;;;25.45;3.90;;;4.50;99.90;;;;;;4993993;28;20029;-74
2022/01/10 00:24:01;;;;;;;15.88;3.88;;;4.50;99.90;;;;;;4995915;28;20109;-73
2022/01/10 00:26:27;;;;;;;24.38;4.38;;;4.50;99.90;;;;;;4992646;28;20109;-72
2022/01/10 00:28:53;;;;;;;21.90;3.92;;;4.50;99.90;;;;;;4994948;28;20035;-72
2022/01/10 00:31:19;;;;;;;12.45;3.55;;;4.50;99.90;;;;;;4998814;28;20499;-73
2022/01/10 00:33:44;;;;;;;14.80;3.90;;;4.50;99.90;;;;;;4998537;28;20030;-73
2022/01/10 00:36:11;;;;;;;11.85;3.47;;;4.50;99.90;;;;;;5001259;28;20062;-73
2022/01/10 00:38:37;;;;;;;11.77;3.53;;;4.50;99.90;;;;;;4998203;28;20032;-73
2022/01/10 00:41:03;;;;;;;13.27;4.03;;;4.50;99.90;;;;;;5001431;28;20109;-73
2022/01/10 00:43:34;;;;;;;14.98;3.78;;;4.50;99.90;;;;;;5001702;28;20038;-73
2022/01/10 00:46:00;;;;;;;;;;;4.50;99.90;;;;;;5003854;28;20026;-73
2022/01/10 00:48:26;;;;;;;18.02;4.18;;;4.50;99.90;;;;;;5000620;28;20179;-74
2022/01/10 00:50:52;;;;;;;16.50;4.10;;;4.50;99.90;;;;;;5001592;28;20068;-73
2022/01/10 00:53:18;;;;;;;18.38;4.30;;;4.50;99.90;;;;;;5001056;28;20026;-73
2022/01/10 00:55:43;;;;;;;20.40;4.22;;;4.40;99.90;;;;;;5005359;28;20030;-72
2022/01/10 00:58:09;;;;;;;15.43;3.95;;;4.40;99.90;;;;;;5001089;28;20057;-73
2022/01/10 01:00:35;;;;;;;16.75;5.15;;;4.50;99.90;;;;;;5029545;23;20041;-73
2022/01/10 01:03:01;;;;;;;14.27;4.50;;;4.50;99.90;;;;;;5021943;28;20037;-73
2022/01/10 01:05:29;;;;;;;16.10;4.35;;;4.40;99.90;;;;;;5020173;28;20025;-74
2022/01/10 01:07:54;;;;;;;10.85;4.20;;;4.40;99.90;;;;;;5019821;28;20332;-73
2022/01/10 01:13:29;;;;;;;17.55;4.50;;;4.40;99.90;;;;;;4998373;28;20038;-74
2022/01/10 01:24:08;;;;;;;17.55;4.68;;;4.50;99.90;;;;;;4997677;28;20244;-73
2022/01/10 01:26:36;;;;;;;19.05;4.28;;;4.50;99.90;;;;;;5001019;28;20025;-73
2022/01/10 01:29:03;;;;;;;19.38;5.07;;;4.50;99.90;;;;;;4999779;28;20030;-73
2022/01/10 01:31:29;;;;;;;11.13;4.00;;;4.50;99.90;;;;;;5000966;28;20025;-73
2022/01/10 01:33:55;;;;;;;12.90;4.18;;;4.60;99.90;;;;;;4999306;28;20032;-73
2022/01/10 01:36:25;;;;;;;20.55;5.38;;;4.60;99.90;;;;;;5002018;28;20391;-73
2022/01/10 01:38:51;;;;;;;16.55;4.82;;;4.60;99.90;;;;;;5001233;28;20037;-73
2022/01/10 01:43:53;;;;;;;17.80;4.70;;;4.70;99.90;;;;;;4998622;28;20129;-73
2022/01/10 01:46:20;;;;;;;14.02;4.25;;;4.70;99.90;;;;;;4998192;28;20479;-73
2022/01/10 01:48:47;;;;;;;15.40;4.30;;;4.60;99.90;;;;;;5001825;28;20031;-73
2022/01/10 01:51:14;;;;;;;19.58;4.78;;;4.70;99.90;;;;;;4999996;28;20030;-73
2022/01/10 01:53:39;;;;;;;10.15;4.25;;;4.70;99.90;;;;;;5001260;28;20392;-73
2022/01/10 01:56:08;;;;;;;12.45;4.53;;;4.80;99.90;;;;;;4999373;28;20029;-73
2022/01/10 01:58:36;;;;;;;11.43;4.45;;;4.80;99.90;;;;;;5000250;28;20041;-73
2022/01/10 02:01:02;;;;;;;13.88;5.97;;;4.80;99.90;;;;;;4999161;28;20042;-73
2022/01/10 02:03:29;;;;;;;17.48;5.60;;;4.80;99.90;;;;;;4998611;28;20022;-73
2022/01/10 02:05:55;;;;;;;13.43;6.18;;;4.70;99.90;;;;;;5001759;28;20033;-74
2022/01/10 02:08:21;;;;;;;15.98;6.55;;;4.80;99.90;;;;;;4998259;28;20030;-73
2022/01/10 02:10:48;;;;;;;19.80;7.10;;;4.70;99.90;;;;;;5000963;28;20068;-73
2022/01/10 02:13:13;;;;;;;16.25;7.05;;;4.60;99.90;;;;;;5002647;28;20099;-73
2022/01/10 02:15:48;;;;;;;16.98;7.45;;;4.60;99.90;;;;;;4998269;28;20029;-74
2022/01/10 02:18:18;;;;;;;26.65;7.32;;;4.70;99.90;;;;;;4999313;28;20617;-74
2022/01/10 02:20:45;;;;;;;20.27;7.30;;;4.70;99.90;;;;;;5002006;28;20034;-73
2022/01/10 02:23:11;;;;;;;17.08;7.93;;;4.70;99.90;;;;;;4997705;28;20100;-73
2022/01/10 02:25:37;;;;;;;16.70;6.88;;;4.70;99.90;;;;;;4999659;28;20621;-74
2022/01/10 02:28:03;;;;;;;15.48;6.60;;;4.70;99.90;;;;;;4998474;28;20141;-73
2022/01/10 02:30:29;;;;;;;14.50;6.50;;;4.70;99.90;;;;;;5000369;28;20022;-73
2022/01/10 02:32:57;;;;;;;18.17;6.90;;;4.70;99.90;;;;;;4999917;28;20554;-73
2022/01/10 02:35:27;;;;;;;14.55;6.68;;;4.70;99.90;;;;;;5002260;28;20459;-73
2022/01/10 02:37:55;;;;;;;18.00;6.70;;;4.70;99.90;;;;;;4999574;28;20399;-74
2022/01/10 02:40:24;;;;;;;26.05;7.82;;;4.80;99.90;;;;;;4995716;28;20031;-73
2022/01/10 02:42:51;;;;;;;21.38;7.38;;;4.80;99.90;;;;;;4989395;28;20049;-73
2022/01/10 02:45:17;;;;;;;15.73;6.97;;;4.70;99.90;;;;;;4989740;28;20030;-73
2022/01/10 02:47:43;;;;;;;24.30;7.68;;;4.70;99.90;;;;;;4986843;28;20449;-73
2022/01/10 02:50:10;;;;;;;16.95;7.72;;;4.70;99.90;;;;;;4987663;28;20019;-73
2022/01/10 02:52:37;;;;;;;14.90;6.45;;;4.80;99.90;;;;;;4999795;28;20033;-73
2022/01/10 02:55:05;;;;;;;15.10;6.05;;;4.80;99.90;;;;;;4997445;28;20517;-73
2022/01/10 02:57:32;;;;;;;18.90;6.75;;;4.80;99.90;;;;;;4998281;28;20027;-73
2022/01/10 02:59:59;;;;;;;16.20;6.70;;;4.80;99.90;;;;;;4996899;28;20515;-73
2022/01/10 03:02:29;;;;;;;18.40;6.90;;;4.80;99.90;;;;;;4999385;28;20057;-73
2022/01/10 03:04:55;;;;;;;12.90;6.03;;;4.80;99.90;;;;;;4999219;28;20109;-73
2022/01/10 03:07:24;;;;;;;22.92;7.78;;;4.80;99.90;;;;;;4999611;28;20503;-74
2022/01/10 03:09:51;;;;;;;17.20;7.13;;;4.80;99.90;;;;;;5002781;28;20068;-73
2022/01/10 03:12:17;;;;;;;21.70;6.90;;;4.80;99.90;;;;;;4998840;28;20018;-73
2022/01/10 03:14:43;;;;;;;15.18;6.00;;;4.80;99.90;;;;;;4999004;28;20030;-73
2022/01/10 03:17:10;;;;;;;23.88;7.00;;;4.80;99.90;;;;;;4996777;28;20455;-73
2022/01/10 03:19:37;;;;;;;14.90;6.30;;;4.80;99.90;;;;;;4998242;28;20034;-73
2022/01/10 03:22:03;;;;;;;13.48;6.10;;;4.80;99.90;;;;;;4999713;28;20108;-73
2022/01/10 03:24:29;;;;;;;10.90;6.30;;;4.90;99.90;;;;;;4996870;28;20029;-73
2022/01/10 03:26:55;;;;;;;23.55;6.78;;;4.90;99.90;;;;;;4996054;28;20105;-73
2022/01/10 03:29:21;;;;;;;15.98;6.43;;;4.80;99.90;;;;;;4998220;28;20164;-74
2022/01/10 03:31:47;;;;;;;15.55;6.70;;;4.80;99.90;;;;;;4997978;28;20014;-73
2022/01/10 03:34:13;;;;;;;22.77;7.18;;;4.80;99.90;;;;;;4999323;28;20029;-74
2022/01/10 03:36:40;;;;;;;15.43;6.63;;;4.80;99.90;;;;;;5000220;28;20026;-74
2022/01/10 03:39:06;;;;;;;14.52;5.57;;;4.90;99.90;;;;;;4998871;28;20039;-73
2022/01/10 03:41:33;;;;;;;18.08;7.15;;;4.80;99.90;;;;;;4999003;28;20116;-73
2022/01/10 03:43:59;;;;;;;10.40;5.50;;;4.90;99.90;;;;;;4997709;28;20033;-73
2022/01/10 03:46:25;;;;;;;14.73;5.82;;;4.90;99.90;;;;;;4998469;28;20038;-73
2022/01/10 03:48:50;;;;;;;14.00;5.53;;;4.90;99.90;;;;;;4995678;28;20396;-73
2022/01/10 03:51:16;;;;;;;16.45;5.75;;;4.90;99.90;;;;;;4994953;28;20029;-73
2022/01/10 03:53:41;;;;;;;11.13;5.47;;;4.90;99.90;;;;;;4997564;28;20030;-73
2022/01/10 03:56:10;;;;;;;15.68;5.68;;;4.90;99.90;;;;;;4996494;28;20035;-74
2022/01/10 03:58:36;;;;;;;20.25;5.63;;;5.00;99.90;;;;;;4995319;28;20026;-73
2022/01/10 04:01:03;;;;;;;16.08;5.78;;;4.90;99.90;;;;;;4996772;28;20076;-73
2022/01/10 04:03:29;;;;;;;15.57;6.47;;;5.00;99.90;;;;;;4998479;28;20035;-73
2022/01/10 04:05:55;;;;;;;14.45;6.13;;;4.90;99.90;;;;;;4997570;28;20085;-73
2022/01/10 04:08:20;;;;;;;18.73;6.78;;;5.00;99.90;;;;;;4996001;28;20116;-73
2022/01/10 04:10:46;;;;;;;18.90;7.97;;;4.90;99.90;;;;;;4996494;28;20030;-74
2022/01/10 04:13:12;;;;;;;24.52;9.50;;;4.90;99.90;;;;;;5000824;28;20117;-74
2022/01/10 04:15:37;;;;;;;29.02;10.52;;;4.90;99.90;;;;;;4998264;28;20025;-74
2022/01/10 04:18:03;;;;;;;26.50;10.50;;;4.90;99.90;;;;;;5003049;28;20034;-73
2022/01/10 04:20:29;;;;;;;19.48;9.57;;;4.90;99.90;;;;;;5002094;28;20101;-73
2022/01/10 04:22:55;;;;;;;32.13;12.10;;;4.80;99.90;;;;;;5000858;28;20089;-73
2022/01/10 04:25:21;;;;;;;29.75;10.85;;;4.70;99.90;;;;;;5002557;28;20025;-73
2022/01/10 04:27:46;;;;;;;26.73;9.77;;;4.70;99.90;;;;;;5002111;28;20029;-73
2022/01/10 04:30:12;;;;;;;30.45;9.30;;;4.60;99.90;;;;;;4985675;28;20027;-73
2022/01/10 04:32:39;;;;;;;31.77;9.57;;;4.60;99.90;;;;;;5001015;28;20030;-74
2022/01/10 04:35:05;;;;;;;24.27;9.20;;;4.60;99.90;;;;;;5001981;28;20050;-73
2022/01/10 04:37:31;;;;;;;29.08;8.93;;;4.60;99.90;;;;;;5001229;28;20041;-73
2022/01/10 04:39:57;;;;;;;28.85;9.77;;;4.60;99.90;;;;;;5001073;28;20038;-73
2022/01/10 04:42:23;;;;;;;30.48;11.20;;;4.60;99.90;;;;;;5001746;28;20079;-74
2022/01/10 04:44:49;;;;;;;23.80;9.27;;;4.60;99.90;;;;;;5000830;28;20118;-72
2022/01/10 04:47:15;;;;;;;29.17;10.68;;;4.60;99.90;;;;;;5002379;28;20160;-74
2022/01/10 04:52:15;;;;;;;26.95;9.75;;;4.60;99.90;;;;;;4995443;28;20036;-73
2022/01/10 04:54:41;;;;;;;25.13;9.02;;;4.60;99.90;;;;;;5002057;28;20022;-74
2022/01/10 04:57:07;;;;;;;23.27;9.55;;;4.60;99.90;;;;;;5001538;28;20040;-73
2022/01/10 04:59:32;;;;;;;20.48;9.15;;;4.60;99.90;;;;;;5001667;28;20100;-73
2022/01/10 05:01:58;;;;;;;16.25;8.52;;;4.60;99.90;;;;;;5002640;28;20026;-73
2022/01/10 05:04:23;;;;;;;20.08;8.95;;;4.60;99.90;;;;;;5001335;28;20397;-73
2022/01/10 05:06:49;;;;;;;24.77;10.48;;;4.60;99.90;;;;;;4996192;28;20034;-74
2022/01/10 05:09:15;;;;;;;18.75;8.43;;;4.60;99.90;;;;;;4990792;28;20036;-74
2022/01/10 05:11:40;;;;;;;23.42;8.82;;;4.60;99.90;;;;;;4992759;28;20026;-73
2022/01/10 05:14:06;;;;;;;20.50;8.45;;;4.60;99.90;;;;;;4995207;28;20029;-73
2022/01/10 05:16:32;;;;;;;16.00;8.20;;;4.60;99.90;;;;;;4995255;28;20029;-73
2022/01/10 05:18:58;;;;;;;17.70;9.13;;;4.60;99.90;;;;;;5003284;28;20033;-74
2022/01/10 05:21:24;;;;;;;15.25;8.40;;;4.60;99.90;;;;;;5000406;28;20507;-73
2022/01/10 05:23:49;;;;;;;16.63;9.32;;;4.60;99.90;;;;;;4999280;28;20038;-73
2022/01/10 05:26:15;;;;;;;17.63;9.25;;;4.60;99.90;;;;;;5000918;28;20034;-73
2022/01/10 05:28:41;;;;;;;13.18;7.88;;;4.60;99.90;;;;;;5001988;28;20033;-73
2022/01/10 05:31:06;;;;;;;12.18;6.85;;;4.60;99.90;;;;;;5001540;28;20080;-74
2022/01/10 05:33:32;;;;;;;15.02;7.15;;;4.60;99.90;;;;;;4999920;28;20137;-73
2022/01/10 05:35:57;;;;;;;9.63;6.40;;;4.60;99.90;;;;;;5001435;28;20030;-73
2022/01/10 05:38:23;;;;;;;10.32;6.68;;;4.50;99.90;;;;;;4999509;28;20449;-73
2022/01/10 05:40:49;;;;;;;10.07;6.63;;;4.50;99.90;;;;;;5001124;28;20034;-73
2022/01/10 05:43:15;;;;;;;8.38;5.85;;;4.50;99.90;;;;;;5000145;28;20038;-73
2022/01/10 05:45:45;;;;;;;10.68;7.05;;;4.40;99.90;;;;;;4994508;28;20034;-74
2022/01/10 05:48:14;;;;;;;10.20;6.03;;;4.40;99.90;;;;;;4997062;28;20460;-73
2022/01/10 05:50:42;;;;;;;10.52;6.70;;;4.40;99.90;;;;;;4996106;28;20026;-74
2022/01/10 05:53:10;;;;;;;10.38;7.30;;;4.40;99.90;;;;;;4995517;28;20030;-73
2022/01/10 05:55:37;;;;;;;11.07;7.20;;;4.40;99.90;;;;;;4995704;28;20520;-73
2022/01/10 05:58:05;;;;;;;10.57;7.25;;;4.50;99.90;;;;;;4997188;28;20030;-73
2022/01/10 06:00:31;;;;;;;10.55;7.10;;;4.40;99.90;;;;;;4996592;28;20029;-73
2022/01/10 06:02:57;;;;;;;11.27;7.05;;;4.40;99.90;;;;;;4998042;28;20042;-74
2022/01/10 06:05:29;;;;;;;10.27;6.97;;;4.50;99.90;;;;;;4999372;28;20032;-73
2022/01/10 06:07:54;;;;;;;11.35;7.78;;;4.50;99.90;;;;;;4995811;28;20403;-73
2022/01/10 06:10:20;;;;;;;12.70;8.10;;;4.50;99.90;;;;;;4996179;28;20091;-72
2022/01/10 06:12:46;;;;;;;12.80;8.27;;;4.50;99.90;;;;;;4999354;28;20083;-72
2022/01/10 06:15:11;;;;;;;13.80;9.07;;;4.50;99.90;;;;;;4999854;28;20113;-73
2022/01/10 06:17:37;;;;;;;13.77;8.85;;;4.40;99.90;;;;;;4998329;28;20507;-72
2022/01/10 06:20:04;;;;;;;13.73;8.85;;;4.40;99.90;;;;;;5002034;28;20033;-74
2022/01/10 06:22:29;;;;;;;14.13;9.23;;;4.40;99.90;;;;;;4997479;28;20039;-73
2022/01/10 06:24:56;;;;;;;14.57;9.50;;;4.40;99.90;;;;;;4994345;28;20034;-73
2022/01/10 06:27:21;;;;;;;15.45;9.23;;;4.40;99.90;;;;;;4998345;28;20104;-74
2022/01/10 06:29:48;;;;;;;15.73;9.05;;;4.40;99.90;;;;;;4999134;28;20109;-73
2022/01/10 06:32:14;;;;;;;14.80;8.98;;;4.40;99.90;;;;;;4996269;28;20105;-72
2022/01/10 06:34:39;;;;;;;13.10;8.70;;;4.40;99.90;;;;;;4999662;28;20518;-72
2022/01/10 06:37:05;;;;;;;14.80;9.50;;;4.40;99.90;;;;;;4999631;28;20036;-73
2022/01/10 06:39:31;;;;;;;17.40;10.27;;;4.40;99.90;;;;;;4996866;28;20030;-73
2022/01/10 06:41:56;;;;;;;16.25;10.45;;;4.40;99.90;;;;;;4982312;28;20026;-73
2022/01/10 06:44:22;;;;;;;16.20;10.43;;;4.40;99.90;;;;;;4999408;28;20487;-75
2022/01/10 06:46:48;;;;;;;18.08;11.07;;;4.40;99.90;;;;;;5000464;28;20026;-72
2022/01/10 06:49:14;;;;;;;15.55;9.88;;;4.40;99.90;;;;;;5001127;28;20042;-75
2022/01/10 06:51:40;;;;;;;14.48;9.88;;;4.40;99.90;;;;;;5000732;28;20112;-72
2022/01/10 06:54:05;;;;;;;15.60;10.40;;;4.40;99.90;;;;;;5013852;28;20068;-73
2022/01/10 06:56:31;;;;;;;19.80;11.07;;;4.40;99.90;;;;;;5002376;28;20018;-73
2022/01/10 06:58:57;;;;;;;16.40;10.60;;;4.40;99.90;;;;;;4999312;28;20038;-73
2022/01/10 07:01:23;;;;;;;17.27;10.88;;;4.40;99.90;;;;;;4999464;28;20495;-72
2022/01/10 07:03:52;;;;;;;16.88;11.05;;;4.40;99.90;;;;;;4999909;28;20065;-75
2022/01/10 07:06:18;;;;;;;16.63;10.95;;;4.40;99.90;;;;;;4999853;28;20480;-72
2022/01/10 07:08:44;;;;;;;18.73;11.82;;;4.40;99.90;;;;;;4995558;28;20038;-72
2022/01/10 07:11:10;;;;;;;18.98;11.15;;;4.40;99.90;;;;;;4999255;28;20026;-73
2022/01/10 07:13:38;;;;;;;18.73;11.93;;;4.40;99.90;;;;;;4994530;28;20101;-72
2022/01/10 07:16:11;;;;;;;17.10;10.98;;;4.40;99.90;;;;;;4991483;28;20031;-73
2022/01/10 07:18:37;;;;;;;16.08;10.30;;;4.40;99.90;;;;;;5007088;28;20023;-74
2022/01/10 07:21:02;;;;;;;18.15;11.02;;;4.40;99.90;;;;;;4993581;28;20109;-72
2022/01/10 07:23:29;;;;;;;20.10;12.57;;;4.40;99.90;;;;;;4995401;28;20115;-74
2022/01/10 07:25:55;;;;;;;18.25;11.63;;;4.40;99.90;;;;;;5002421;28;20493;-72
2022/01/10 07:28:21;;;;;;;19.20;11.88;;;4.30;99.90;;;;;;5003485;28;20027;-72
2022/01/10 07:30:49;;;;;;;21.17;12.73;;;4.30;99.90;;;;;;4998397;28;20050;-72
2022/01/10 07:33:15;;;;;;;22.88;13.77;;;4.30;99.90;;;;;;4992536;28;20105;-73
2022/01/10 07:35:40;;;;;;;23.02;14.23;;;4.30;99.90;;;;;;4999606;28;20018;-73
2022/01/10 07:38:06;;;;;;;22.58;12.90;;;4.30;99.90;;;;;;4993845;28;20120;-72
2022/01/10 07:40:32;;;;;;;25.42;14.45;;;4.30;99.90;;;;;;4989360;28;20038;-71
2022/01/10 07:42:58;;;;;;;28.15;15.68;;;4.30;99.90;;;;;;4994389;28;20084;-71
2022/01/10 07:45:23;;;;;;;26.10;14.43;;;4.20;99.90;;;;;;4993275;28;20121;-71
2022/01/10 07:47:49;;;;;;;26.55;14.43;;;4.20;99.90;;;;;;4994781;28;20030;-72
2022/01/10 07:50:15;;;;;;;26.10;14.80;;;4.20;99.90;;;;;;4991761;28;20106;-71
2022/01/10 07:52:41;;;;;;;23.88;14.25;;;4.20;99.90;;;;;;4994688;28;20101;-72
2022/01/10 07:55:09;;;;;;;25.63;14.55;;;4.20;99.90;;;;;;4996233;28;20947;-72
2022/01/10 07:57:34;;;;;;;26.67;14.95;;;4.20;99.90;;;;;;4997093;28;20105;-74
2022/01/10 08:00:00;;;;;;;25.38;15.30;;;4.30;99.90;;;;;;4992311;28;20034;-71
2022/01/10 08:02:26;;;;;;;25.05;14.40;;;4.30;99.90;;;;;;4995065;28;20037;-71
2022/01/10 08:04:52;;;;;;;25.30;15.10;;;4.30;99.90;;;;;;4997807;28;20029;-72
2022/01/10 08:07:18;;;;;;;24.15;14.43;;;4.30;99.90;;;;;;4998049;28;20519;-72
2022/01/10 08:09:44;;;;;;;23.02;13.43;;;4.30;99.90;;;;;;4998211;28;20022;-73
2022/01/10 08:12:10;;;;;;;24.10;14.40;;;4.40;99.90;;;;;;4992081;28;20040;-73
2022/01/10 08:14:36;;;;;;;26.92;15.05;;;4.40;99.90;;;;;;4991979;28;20022;-73
2022/01/10 08:17:02;;;;;;;27.20;15.70;;;4.40;99.90;;;;;;4991538;28;20042;-72
2022/01/10 08:19:30;;;;;;;25.23;14.77;;;4.40;99.90;;;;;;4995681;28;20030;-73
2022/01/10 08:21:56;;;;;;;28.85;16.20;;;4.40;99.90;;;;;;4989839;28;20489;-72
2022/01/10 08:24:23;;;;;;;32.80;17.13;;;4.40;99.90;;;;;;5002874;28;20520;-72
2022/01/10 08:26:49;;;;;;;29.90;16.52;;;4.40;99.90;;;;;;4996025;28;20030;-73
2022/01/10 08:29:16;;;;;;;29.08;16.08;;;4.40;99.90;;;;;;5003456;28;20053;-73
2022/01/10 08:31:41;;;;;;;29.00;17.02;;;4.30;99.90;;;;;;4999109;28;20022;-74
2022/01/10 08:34:07;;;;;;;28.80;16.40;;;4.40;99.90;;;;;;4995393;28;20030;-73
2022/01/10 08:36:34;;;;;;;29.60;16.40;;;4.30;99.90;;;;;;4990842;28;20022;-73
2022/01/10 08:39:01;;;;;;;29.00;16.70;;;4.30;99.90;;;;;;4992111;28;20502;-74
2022/01/10 08:41:27;;;;;;;29.23;16.20;;;4.40;99.90;;;;;;4993544;28;20506;-73
2022/01/10 08:43:52;;;;;;;32.17;17.42;;;4.40;99.90;;;;;;4997476;28;20030;-73
2022/01/10 08:46:18;;;;;;;29.52;17.70;;;4.40;99.90;;;;;;4993950;28;20027;-73
2022/01/10 08:48:44;;;;;;;29.23;17.63;;;4.40;99.90;;;;;;4994361;28;20026;-74
2022/01/10 08:51:11;;;;;;;27.65;15.57;;;4.40;99.90;;;;;;4991389;28;20396;-72
2022/01/10 08:53:37;;;;;;;30.80;17.00;;;4.40;99.90;;;;;;4991967;28;20022;-73
2022/01/10 08:56:04;;;;;;;30.65;16.08;;;4.40;99.90;;;;;;4993645;28;20030;-74
2022/01/10 08:58:32;;;;;;;29.95;16.48;;;4.40;99.90;;;;;;4994756;28;20121;-73
2022/01/10 09:01:03;;;;;;;29.65;16.80;;;4.50;99.90;;;;;;4994775;28;20038;-73
2022/01/10 09:03:29;;;;;;;28.25;16.17;;;4.50;99.90;;;;;;4999393;28;20668;-73
2022/01/10 09:05:56;;;;;;;28.85;15.75;;;4.50;99.90;;;;;;4994611;28;20042;-73
2022/01/10 09:08:25;;;;;;;32.90;17.88;;;4.50;99.90;;;;;;5000462;28;20563;-73
2022/01/10 09:10:51;;;;;;;28.60;15.52;;;4.50;99.90;;;;;;4999692;28;20476;-72
2022/01/10 09:13:17;;;;;;;31.90;17.38;;;4.60;99.90;;;;;;5016031;28;20045;-73
2022/01/10 09:15:43;;;;;;;31.20;17.17;;;4.50;99.90;;;;;;5001178;28;20511;-73
2022/01/10 09:18:08;;;;;;;30.05;16.58;;;4.60;99.90;;;;;;5001647;28;20038;-72
2022/01/10 09:20:34;;;;;;;28.38;15.68;;;4.60;99.90;;;;;;4999083;28;20046;-73
2022/01/10 09:23:00;;;;;;;30.77;17.38;;;4.60;99.90;;;;;;4995734;28;20551;-73
2022/01/10 09:25:27;;;;;;;29.25;16.58;;;4.70;99.90;;;;;;4998560;28;20073;-73
2022/01/10 09:27:54;;;;;;;28.80;15.68;;;4.70;99.90;;;;;;4999167;28;20022;-73
2022/01/10 09:30:21;;;;;;;30.00;16.70;;;4.80;99.90;;;;;;4999314;28;20037;-73
2022/01/10 09:32:47;;;;;;;29.75;16.27;;;4.80;99.90;;;;;;4993239;28;20049;-72
2022/01/10 09:35:13;;;;;;;29.75;16.83;;;4.90;99.90;;;;;;5000589;28;20492;-73
2022/01/10 09:37:38;;;;;;;28.98;16.02;;;4.90;99.90;;;;;;4999393;28;20033;-72
2022/01/10 09:40:06;;;;;;;33.95;18.25;;;4.90;99.90;;;;;;4999551;28;20040;-72
2022/01/10 09:42:35;;;;;;;35.22;19.23;;;5.00;99.90;;;;;;4999284;28;20037;-74
2022/01/10 09:45:03;;;;;;;34.80;17.88;;;5.00;99.90;;;;;;4999307;28;20156;-74
2022/01/10 09:47:29;;;;;;;31.77;16.77;;;5.00;99.90;;;;;;5001069;28;20057;-74
2022/01/10 09:49:54;;;;;;;31.45;16.17;;;4.90;99.90;;;;;;4998665;28;20500;-74
2022/01/10 09:52:20;;;;;;;30.45;17.33;;;4.90;99.90;;;;;;4998095;28;20037;-74
2022/01/10 09:54:46;;;;;;;32.45;17.30;;;4.90;99.90;;;;;;4997647;28;20026;-75
2022/01/10 09:57:12;;;;;;;33.63;19.02;;;4.90;99.90;;;;;;4997176;28;20449;-74
2022/01/10 09:59:40;;;;;;;34.80;17.90;;;4.90;99.90;;;;;;4999805;28;20034;-73
2022/01/10 10:02:08;;;;;;;33.90;17.98;;;5.00;99.90;;;;;;4996641;28;20470;-74
2022/01/10 10:04:37;;;;;;;36.13;18.15;;;5.00;99.90;;;;;;4998675;28;20500;-73
2022/01/10 10:07:06;;;;;;;38.65;18.65;;;4.90;99.90;;;;;;4996262;28;20523;-72
2022/01/10 10:09:33;;;;;;;32.88;17.65;;;5.00;99.90;;;;;;4997548;28;20038;-72
2022/01/10 10:12:00;;;;;;;33.00;17.80;;;5.00;99.90;;;;;;4998888;28;20085;-71
2022/01/10 10:14:26;;;;;;;36.13;17.92;;;5.00;99.90;;;;;;4996230;28;20022;-73
2022/01/10 10:16:56;;;;;;;34.80;17.98;;;5.00;99.90;;;;;;4995080;28;20030;-71
2022/01/10 10:19:23;;;;;;;33.75;17.73;;;5.00;99.90;;;;;;4995918;28;20030;-72
2022/01/10 10:21:50;;;;;;;31.35;15.95;;;5.10;99.90;;;;;;4997045;28;20439;-75
2022/01/10 10:24:17;;;;;;;30.48;16.55;;;5.00;99.90;;;;;;4990843;28;20049;-72
2022/01/10 10:26:43;;;;;;;38.95;19.05;;;5.10;99.90;;;;;;4997398;28;20810;-74
2022/01/10 10:29:13;;;;;;;33.55;17.08;;;5.20;99.90;;;;;;4995839;28;20065;-74
2022/01/10 10:31:56;;;;;;;32.77;17.37;;;5.20;99.90;;;;;;4990616;28;20533;-74
2022/01/10 10:34:28;;;;;;;34.10;17.70;;;5.30;99.90;;;;;;4998206;28;20500;-72
2022/01/10 10:37:07;;;;;;;37.38;19.35;;;5.40;99.90;;;;;;4996968;28;20394;-72
2022/01/10 10:39:39;;;;;;;42.53;20.17;;;5.30;99.90;;;;;;4991504;28;20034;-73
2022/01/10 10:42:10;;;;;;;44.72;20.20;;;5.30;99.90;;;;;;4991255;28;20504;-72
2022/01/10 10:44:36;;;;;;;42.35;20.23;;;5.30;99.90;;;;;;4989749;28;20030;-72
2022/01/10 10:47:03;;;;;;;44.33;21.42;;;5.20;99.90;;;;;;4996681;28;20041;-72
2022/01/10 10:49:34;;;;;;;38.50;19.90;;;5.20;99.90;;;;;;4996992;28;20026;-74
2022/01/10 10:52:03;;;;;;;41.75;20.75;;;5.20;99.90;;;;;;4996808;28;20037;-74
2022/01/10 10:54:32;;;;;;;37.65;19.70;;;5.20;99.90;;;;;;4994996;28;20085;-73
2022/01/10 10:57:03;;;;;;;42.95;22.23;;;5.20;99.90;;;;;;4994289;28;20034;-73
2022/01/10 10:59:31;;;;;;;41.13;20.90;;;5.20;99.90;;;;;;4992638;28;20038;-73
2022/01/10 11:01:58;;;;;;;37.83;19.25;;;5.30;99.90;;;;;;4990672;28;20418;-73
2022/01/10 11:04:44;;;;;;;43.38;20.50;;;5.30;99.90;;;;;;4994906;28;20030;-73
2022/01/10 11:07:11;;;;;;;38.50;18.90;;;5.30;99.90;;;;;;4971253;28;20051;-73
2022/01/10 11:09:37;;;;;;;40.83;19.30;;;5.30;99.90;;;;;;4970410;28;20525;-74
2022/01/10 11:12:02;;;;;;;40.67;19.85;;;5.20;99.90;;;;;;4951602;28;20113;-74
2022/01/10 11:14:28;;;;;;;37.72;20.00;;;5.20;99.90;;;;;;4973074;28;20030;-73
2022/01/10 11:16:54;;;;;;;36.08;18.85;;;5.20;99.90;;;;;;4972080;28;20034;-73
2022/01/10 11:19:24;;;;;;;42.88;21.23;;;5.20;99.90;;;;;;4971469;28;20046;-70
2022/01/10 11:22:02;;;;;;;43.05;19.38;;;5.20;99.90;;;;;;4976745;28;20031;-72
2022/01/10 11:24:48;;;;;;;37.20;19.38;;;5.20;99.90;;;;;;4969346;28;20073;-73
2022/01/10 11:27:43;;;;;;;39.25;19.15;;;5.20;99.90;;;;;;4974293;28;20039;-73
2022/01/10 11:30:29;;;;;;;38.97;20.80;;;5.20;99.90;;;;;;4955973;28;20053;-73
2022/01/10 11:33:08;;;;;;;41.10;19.02;;;5.20;99.90;;;;;;4983127;28;20058;-73
2022/01/10 11:35:46;;;;;;;38.50;19.17;;;5.20;99.90;;;;;;4977880;28;20492;-73
2022/01/10 11:38:18;;;;;;;40.17;18.83;;;5.20;99.90;;;;;;4975899;28;20538;-73
2022/01/10 11:40:45;;;;;;;40.42;19.85;;;5.20;99.90;;;;;;4975988;28;20042;-74
2022/01/10 11:43:28;;;;;;;39.97;20.45;;;5.30;99.90;;;;;;4979884;28;20053;-74
2022/01/10 11:46:16;;;;;;;40.78;19.38;;;5.30;99.90;;;;;;4993720;28;20034;-73
2022/01/10 11:48:50;;;;;;;37.95;18.73;;;5.30;99.90;;;;;;4992865;28;20041;-74
2022/01/10 11:51:20;;;;;;;36.70;18.55;;;5.30;99.90;;;;;;4995712;28;20026;-74
2022/01/10 11:53:51;;;;;;;40.55;20.70;;;5.30;99.90;;;;;;4997661;28;20120;-74
2022/01/10 11:56:23;;;;;;;;;;;5.30;99.90;;;;;;4995634;28;20026;-73
2022/01/10 11:59:10;;;;;;;39.00;19.77;;;5.30;99.90;;;;;;4996567;28;19921;-73
2022/01/10 12:01:38;;;;;;;40.45;21.75;;;5.20;99.90;;;;;;4980019;28;20041;-73
2022/01/10 12:04:04;;;;;;;40.13;20.27;;;5.20;99.90;;;;;;4996563;28;20036;-73
2022/01/10 12:06:30;;;;;;;41.85;20.52;;;5.30;99.90;;;;;;4996943;28;20126;-73
2022/01/10 12:08:57;;;;;;;40.08;19.85;;;5.30;99.90;;;;;;4995935;28;20034;-73
2022/01/10 12:11:25;;;;;;;41.20;20.55;;;5.40;99.90;;;;;;4981257;28;20034;-75
2022/01/10 12:13:53;;;;;;;39.00;20.45;;;5.40;99.90;;;;;;4991365;28;20026;-74
2022/01/10 12:16:20;;;;;;;44.15;22.70;;;5.40;99.90;;;;;;4994832;28;20079;-72
2022/01/10 12:18:46;;;;;;;41.03;21.55;;;5.40;99.90;;;;;;4997498;28;20038;-75
2022/01/10 12:21:13;;;;;;;39.60;20.88;;;5.40;99.90;;;;;;4995094;28;20029;-76
2022/01/10 12:23:40;;;;;;;42.83;23.00;;;5.40;99.90;;;;;;4998103;28;20038;-71
2022/01/10 12:26:05;;;;;;;48.28;22.40;;;5.40;99.90;;;;;;4996261;28;20033;-73
2022/01/10 12:28:31;;;;;;;48.33;23.15;;;5.40;99.90;;;;;;4998391;28;20113;-72
2022/01/10 12:31:02;;;;;;;44.40;22.88;;;5.30;99.90;;;;;;4997238;28;20062;-74
2022/01/10 12:33:34;;;;;;;51.63;25.35;;;5.40;99.90;;;;;;5002865;28;20033;-73
2022/01/10 12:36:05;;;;;;;45.65;24.02;;;5.40;99.90;;;;;;5002679;28;20033;-75
2022/01/10 12:38:30;;;;;;;;;;;5.40;99.90;;;;;;4999467;28;20030;-74
2022/01/10 12:40:56;;;;;;;44.72;22.65;;;5.40;99.90;;;;;;5002122;28;20007;-74
2022/01/10 12:43:22;;;;;;;47.45;24.75;;;5.40;99.90;;;;;;5002606;28;20034;-75
2022/01/10 12:45:49;;;;;;;43.78;22.65;;;5.50;99.90;;;;;;4981191;28;20026;-77
2022/01/10 12:48:15;;;;;;;43.33;22.05;;;5.50;99.90;;;;;;4999276;28;20026;-73
2022/01/10 12:50:45;;;;;;;42.17;22.60;;;5.40;99.90;;;;;;4999787;28;20512;-73
2022/01/10 12:53:11;;;;;;;41.92;21.92;;;5.40;99.90;;;;;;4997406;28;20022;-73
2022/01/10 12:55:36;;;;;;;41.83;22.90;;;5.40;99.90;;;;;;5001070;28;20027;-72
2022/01/10 12:58:06;;;;;;;43.92;23.60;;;5.40;99.90;;;;;;5001485;28;20042;-74
2022/01/10 13:00:32;;;;;;;44.92;23.90;;;5.40;99.90;;;;;;4998196;28;20030;-73